Overview Statistics Trail Chart Weather Telemetry Raw packets
 

This is the latest recevied telemetry packets stored in our database for station/object DL1MX-14. If no packets are shown the sender has not sent any telemetry packets the latest 10 day(s).

Telemetry packets is used to share measurements like repeteater parameters, battery voltage, radiation readings (or any other measurements).

<< 1 2 3 4 >>
Time Press* Temp.in* Hum* QNH* Temp.out*
1788528516 948 hPa 32.8 C deg 32.9 % 959.5 hPa 20.2 C deg
1788528026 947.9 hPa 32.4 C deg 33.1 % 959.4 hPa 20 C deg
1788526194 948.3 hPa 32 C deg 33.1 % 959.8 hPa 19.4 C deg
1788524366 948.2 hPa 31.8 C deg 33 % 959.7 hPa 19.1 C deg
1788524211 948.3 hPa 31.6 C deg 33.2 % 959.8 hPa 19.1 C deg
1788522385 948.5 hPa 31.2 C deg 33.3 % 960.1 hPa 18.9 C deg
1788520552 949.1 hPa 31 C deg 33.3 % 960.7 hPa 18.7 C deg
1788519709 949.1 hPa 30.8 C deg 33.5 % 960.7 hPa 18.6 C deg
1788517880 949.1 hPa 30.7 C deg 33.5 % 960.7 hPa 18.4 C deg
1788516087 949.6 hPa 30.4 C deg 33.4 % 961.2 hPa 18.1 C deg
1788515152 949.7 hPa 30.3 C deg 33.4 % 961.3 hPa 18.1 C deg
1788514336 949.8 hPa 30.1 C deg 33.4 % 961.4 hPa 17.9 C deg
1788512505 950.2 hPa 29.6 C deg 33.7 % 961.8 hPa 17.7 C deg
1788510676 950.3 hPa 28.9 C deg 34 % 962 hPa 17.4 C deg
1788508848 950.8 hPa 28.4 C deg 34.1 % 962.5 hPa 17.1 C deg
1788507942 950.7 hPa 28 C deg 34.1 % 962.4 hPa 16.9 C deg
1788507113 950.8 hPa 27.6 C deg 34.3 % 962.5 hPa 16.8 C deg
1788505820 951 hPa 27.7 C deg 34.1 % 962.7 hPa 16.4 C deg
1788503312 951.2 hPa 27.6 C deg 34 % 962.9 hPa 16.2 C deg
1788501484 951.3 hPa 27.3 C deg 34.3 % 963 hPa 16.1 C deg
1788499650 951.8 hPa 27.3 C deg 34.4 % 963.6 hPa 16.1 C deg
1788497784 951.8 hPa 27.5 C deg 34.1 % 963.6 hPa 15.9 C deg
1788497720 951.8 hPa 27.4 C deg 34.2 % 963.5 hPa 15.9 C deg
1788493715 952.3 hPa 27.4 C deg 34.1 % 964 hPa 15.8 C deg
1788492293 952.7 hPa 27.2 C deg 34.4 % 964.4 hPa 15.8 C deg
*Used Equation Coefficients:
Press: 0, 1, 0
Temp.in: 0, 1, 0
Hum: 0, 1, 0
QNH: 0, 1, 0
Temp.out: 0, 1, 0

  • The parameter names for the analog channels will be Value1, Value2, Value3 (up to Value5) if station has not sent a PARAM-packet that specifies the parameter names for each analog channel.
  • Each analog value is a decimal number between 000 and 255 (according to APRS specifications). The receiver use the telemetry equation coefficientsto to restore the original sensor values. If no EQNS-packet with equation coefficients is sent we will show the values as is (this corresponds to the equation coefficients a=0, b=1 and c=0).
    The sent equation coefficients is used in the equation: a * value2 + b * value + c.
  • The units for the analog values will not be shown if station has not sent a UNIT-packet specifying what unit's to use.
  • The parameter names for the digital bits will be Bit1, Bit2, Bit3 (up to Bit8) if station has not sent a PARAM-packet that specifies the parameter names for each digital bit.
  • All bit labels will be named "On" if station has not sent a UNIT-packet that specifies the label of each bit.
  • A bit is considered to be On when the bit is 1 if station has not sent a BITS-packet that specifies another "Bit sense" (a BITS-packet specify the state of the bits that match the BIT labels)